Meteo Giornale » Osservazioni meteo Stati Uniti (USA) » St Augustine
ore: 17:08 - Osservazioni Meteo St Augustine
Lat. 29° 57' N Lon. 81° 20' W Alt. 3 metri s.l.m.
28 °C
Poco Nuvoloso
Temp. 24 Ore
26 °C
29 °C
Nord/Nord-Est
16.7 Km/h
Dew point 24 °C
Umidità 78 %
Visibilità 10 Km
Il sole sorge alle ore 07:01
Il sole tramonta alle ore 19:49
| Data e Ora | Cielo e Fenomeni | T °C | DP °C | Um. % | Pres. hPa | Vis. km | Vento km/h | |
|---|---|---|---|---|---|---|---|---|
| Oggi h: 17:08 | Poco Nuvoloso | 28 | 24 | 78 | 1017 | 10 | N/NE 16.7 | |
| Oggi h: 16:56 | Sereno | 28 | 24 | 78 | 1018 | 11 | NE 14.8 | |
| Oggi h: 15:56 | Sereno | 29 | 24 | 74 | 1017 | 10 | NE 22.2 | |
| Oggi h: 14:56 | Sereno | 28 | 24 | 78 | 1018 | 10 | NE 20.3 | |
| Oggi h: 13:56 | Sereno | 29 | 26 | 83 | 1019 | 10 | N/NE 20.3 | |
| Oggi h: 12:56 | Sereno | 29 | 26 | 83 | 1019 | 10 | N/NE 16.7 | |
| Oggi h: 11:56 | Sereno | 29 | 26 | 83 | 1019 | 10 | NE 20.3 | |
| Oggi h: 11:03 | Nuvoloso | 29 | 26 | 83 | 1019 | 10 | NE 14.8 | |
| Oggi h: 10:56 | Molto Nuvoloso | 29 | 25 | 79 | 1019 | 10 | E/NE 14.8 | |
| Oggi h: 09:56 | Molto Nuvoloso | 29 | 26 | 83 | 1019 | 10 | E/NE 14.8 | |
| Oggi h: 09:14 | Nuvoloso | 28 | 26 | 88 | 1018 | 10 | N 9.3 | |
| Oggi h: 08:56 | Molto Nuvoloso | 28 | 26 | 88 | 1018 | 11 | N 7.4 | |
| Oggi h: 08:25 | Molto Nuvoloso | 27 | 26 | 94 | 1018 | 11 | N 5.5 | |
| Oggi h: 07:56 | Sereno | 26 | 25 | 94 | 1018 | 10 | N 0 | |
| Oggi h: 06:56 | Sereno | 26 | 24 | 88 | 1017 | 10 | NO 7.4 | |
| Oggi h: 05:56 | Sereno | 26 | 25 | 94 | 1017 | 10 | N 0 | |
| Oggi h: 04:56 | Sereno | 26 | 24 | 88 | 1017 | 10 | N 0 | |
| Oggi h: 03:56 | Sereno | 26 | 25 | 94 | 1017 | 10 | N 0 | |
| Oggi h: 02:56 | Sereno | 26 | 25 | 94 | 1017 | 10 | N 0 | |
| Oggi h: 01:56 | Sereno | 27 | 26 | 94 | 1017 | 10 | N 5.5 | |
| Oggi h: 00:56 | Poco Nuvoloso | 27 | 26 | 94 | 1017 | 10 | E/NE 11.1 | |
| Ieri h: 23:56 | Sereno | 27 | 26 | 94 | 1018 | 10 | N/NE 9.3 | |
| Ieri h: 22:56 | Sereno | 27 | 26 | 94 | 1018 | 10 | NE 9.3 | |
| Ieri h: 21:56 | Sereno | 27 | 26 | 94 | 1018 | 10 | N 5.5 | |
| Ieri h: 20:56 | Sereno | 27 | 26 | 94 | 1018 | 10 | E/NE 11.1 | |
| Ieri h: 19:56 | Sereno | 27 | 25 | 88 | 1018 | 10 | E/NE 11.1 | |
| Ieri h: 18:56 | Sereno | 28 | 24 | 78 | 1017 | 10 | E/NE 16.7 | |
| Ieri h: 17:56 | Sereno | 28 | 25 | 83 | 1017 | 10 | E/NE 16.7 | |



